GCC Virtual Airport Information Service

Kuwait International Airport

ICAO: OKBK Country: KW
Latitude: 29.2266 Longitude: 47.9689
Latest Arrival : ETD301 (OMAA-OKBK) Latest Departure : KAC117 (OKBK-KJFK)


WX CaptureLIVE
Data provided by noaa.gov | Fetched at 07:33:16

METAR : OKBK 270700Z 00000KT 4000 -DU SKC 17/00 Q1022 NOSIG

TAF : OKBK 270445Z 2706/2812 VRB03KT 7000 NSC= OMAA 270500Z 2706/2812 18005KT 8000 NSC BECMG 2706/2708 32015KT BECMG 2722/2800 04005KT 3000 BR BKN006 PROB40 2801/2805 12005KT 0200 FG VV/// BECMG 2806/2808 8000 NSW NSC BECMG 2810/2812 32010KT


Runway Data for OKBK
Data provided by openaviationdata.com

Runway ID Mag Var Hdg Length Elevation Surface ILS Freq ILS Id ILS Slope
15L 2 152° 11509 ft 168 ft Asphalt 110.1 IKIC 3
15R 2 152° 11181 ft 168 ft Concrete 111.3 IKIB 3
33L 2 332° 11181 ft 168 ft Concrete 109.5 IKIA 3
33R 2 332° 11509 ft 168 ft Asphalt 110.5 IKID 3

Kuwait International Airport, KW
Use only for reference purposes



Not for navigational purposes.